메인 페이지
METAR-TAF:

METAR-TAF

공항 :

더블린 공항

더블린, 아일랜드

위도: 53-26N, 경도: 006-15W, 고도: 68m

현재 날씨관측

예보는 31분 전, 17:00시(UTC)에 발표되었습니다.
북서7kt
온도 9°C
습도 71%
기압 1024 hPa
시정 10km 이상
고도 2400ft 상공 구름 조금
고도 4000ft 상공 구름 보통

METAR: EIDW 171700Z 31007KT 9999 FEW024 SCT040 09/04 Q1024 NOSIG

시각: 18:31 (17:31 UTC)

예보

예보는 6 시간 31분 전, 11:00시(UTC)에 발표되었습니다.
예보 대상 시간: 17일 12시부터 18일 12시까지 (UTC)
북서8kt
시정 10km 이상
고도 1400ft 상공 구름 조금
고도 2500ft 상공 구름 보통
일시적
18일 03시부터 18일 08시까지 (UTC)
4kt
시정: 3000m
박무

TAF: EIDW 171100Z 1712/1812 31008KT 9999 FEW014 SCT025 TEMPO 1803/1808 27004KT 3000 BR

4,000개 이상의 공항 관측 자료 및 예보 (METAR 및 TAF 보고).

지도상에서 검색 가능한 기상관측소가 노란 점과 빨간 점으로 표시되어 있습니다.

기상관측소 명을 보려면 표시 위로 마우스를 이동하세요.

날씨 관측과 예보를 보려면 클릭하세요.

지도 변경 : 확대하려면 엑스 표시가 있는 녹색 버튼, 축소하려면 빼기 표시가 있는 녹색 버튼, 다음 페이지의 지도를 보려면 녹색 화살표를 클릭하세요.


METAR-TAF: